Time;durP1;ratioP1;P1;durP2;ratioP2;P2;SDS_P1;SDS_P2;PMS_P1;PMS_P2;Temp;Humidity;BMP_temperature;BMP_pressure;BME280_temperature;BME280_humidity;BME280_pressure;Samples;Min_cycle;Max_cycle;Signal;HPM_P1;HPM_P2
2021/08/04 00:00:46;;;;;;;2.67;1.90;;;14.80;79.70;;;;;;5073507;28;20213;-91
2021/08/04 00:03:12;;;;;;;4.82;1.88;;;14.60;80.20;;;;;;5055328;28;20663;-91
2021/08/04 00:05:37;;;;;;;3.00;2.10;;;14.50;80.70;;;;;;5077153;28;20220;-90
2021/08/04 00:08:03;;;;;;;4.50;2.27;;;14.50;81.20;;;;;;5059454;28;20201;-91
2021/08/04 00:10:29;;;;;;;2.63;1.90;;;14.40;81.10;;;;;;5059308;28;20758;-91
2021/08/04 00:12:55;;;;;;;1.80;1.70;;;14.30;81.10;;;;;;5077228;28;20195;-91
2021/08/04 00:15:21;;;;;;;2.10;1.90;;;14.30;81.10;;;;;;5077469;28;20248;-91
2021/08/04 00:17:47;;;;;;;4.23;2.30;;;14.30;81.40;;;;;;5077164;28;20240;-91
2021/08/04 00:20:13;;;;;;;4.33;1.77;;;14.30;81.70;;;;;;5077332;28;20175;-91
2021/08/04 00:22:39;;;;;;;2.20;1.80;;;14.30;81.70;;;;;;5059151;28;20191;-91
2021/08/04 00:25:06;;;;;;;2.40;2.03;;;14.30;81.70;;;;;;5076919;28;20530;-91
2021/08/04 00:27:32;;;;;;;3.90;1.97;;;14.40;81.60;;;;;;5077424;28;20182;-91
2021/08/04 00:29:57;;;;;;;2.20;2.00;;;14.30;81.60;;;;;;5077013;28;20168;-91
2021/08/04 00:32:23;;;;;;;2.30;2.03;;;14.30;81.70;;;;;;5058942;28;20238;-91
2021/08/04 00:34:49;;;;;;;2.10;1.90;;;14.30;81.80;;;;;;5058766;28;20675;-91
2021/08/04 00:37:16;;;;;;;2.50;1.90;;;14.30;81.60;;;;;;5076970;28;20225;-91
2021/08/04 00:39:41;;;;;;;2.43;2.20;;;14.20;81.70;;;;;;5076644;28;20179;-91
2021/08/04 00:42:08;;;;;;;1.97;1.87;;;14.20;82.00;;;;;;5076332;28;20303;-91
2021/08/04 00:44:33;;;;;;;2.90;1.97;;;14.10;82.10;;;;;;5076655;28;20254;-91
2021/08/04 00:47:01;;;;;;;2.10;1.90;;;14.10;82.20;;;;;;5076691;28;20218;-91
2021/08/04 00:49:27;;;;;;;3.80;2.10;;;14.00;82.20;;;;;;5058731;28;20179;-91
2021/08/04 00:51:52;;;;;;;2.23;2.00;;;14.00;82.20;;;;;;5076345;28;20191;-91
2021/08/04 00:54:18;;;;;;;3.63;2.17;;;14.00;82.20;;;;;;5076542;28;20662;-91
2021/08/04 00:56:44;;;;;;;2.30;2.10;;;14.10;82.40;;;;;;5076366;28;20175;-91
2021/08/04 00:59:12;;;;;;;2.33;2.00;;;14.00;82.30;;;;;;5076341;28;20175;-91
2021/08/04 01:01:53;;;;;;;2.40;2.00;;;14.00;82.10;;;;;;5076209;28;20187;-91
2021/08/04 01:04:29;;;;;;;2.93;1.73;;;13.90;82.00;;;;;;5076277;28;20162;-91
2021/08/04 01:07:13;;;;;;;2.60;1.93;;;13.80;82.10;;;;;;5058318;28;20172;-91
2021/08/04 01:09:45;;;;;;;4.07;2.17;;;13.80;82.20;;;;;;5058221;28;20286;-91
2021/08/04 01:12:15;;;;;;;4.00;1.97;;;13.80;82.40;;;;;;5076128;28;20198;-91
2021/08/04 01:14:43;;;;;;;3.83;2.00;;;13.80;82.30;;;;;;5058070;28;20227;-91
2021/08/04 01:17:10;;;;;;;3.67;1.90;;;13.80;82.10;;;;;;5057703;28;20167;-91
2021/08/04 01:19:58;;;;;;;4.93;2.00;;;13.80;82.10;;;;;;5058278;28;20177;-91
2021/08/04 01:23:09;;;;;;;2.30;2.10;;;13.80;82.20;;;;;;5075814;28;20198;-91
2021/08/04 01:26:02;;;;;;;4.07;2.23;;;13.70;82.20;;;;;;5075860;28;20194;-91
2021/08/04 01:28:52;;;;;;;3.20;2.47;;;13.70;82.20;;;;;;5075752;28;20505;-91
2021/08/04 01:31:24;;;;;;;1.97;1.77;;;13.70;82.40;;;;;;5075114;28;20259;-92
2021/08/04 01:33:53;;;;;;;3.67;2.47;;;13.60;82.50;;;;;;5075985;28;20631;-91
2021/08/04 01:36:19;;;;;;;3.17;2.20;;;13.50;82.80;;;;;;5075608;28;20749;-91
2021/08/04 01:38:46;;;;;;;2.67;2.40;;;13.50;83.10;;;;;;5057765;28;20180;-91
2021/08/04 01:41:15;;;;;;;4.60;2.20;;;13.30;83.20;;;;;;5075773;28;20186;-91
2021/08/04 01:43:42;;;;;;;3.37;2.30;;;13.30;83.30;;;;;;5145674;23;20234;-89
2021/08/04 01:46:09;;;;;;;4.07;2.10;;;13.30;83.40;;;;;;5075659;28;20196;-89
2021/08/04 01:48:38;;;;;;;6.77;2.43;;;13.30;83.40;;;;;;5075321;28;20177;-89
2021/08/04 01:51:05;;;;;;;2.67;2.30;;;13.30;83.40;;;;;;5075271;28;20321;-89
2021/08/04 01:53:33;;;;;;;3.43;2.70;;;13.30;83.40;;;;;;5075152;28;20274;-88
2021/08/04 01:55:59;;;;;;;3.97;2.33;;;13.30;83.30;;;;;;5057160;28;20195;-89
2021/08/04 01:58:25;;;;;;;3.60;2.10;;;13.30;83.50;;;;;;5075082;28;20250;-89
2021/08/04 02:00:51;;;;;;;4.50;2.40;;;13.20;83.70;;;;;;5057478;28;20171;-89
2021/08/04 02:03:16;;;;;;;5.23;2.33;;;13.20;83.60;;;;;;5057668;28;20227;-89
2021/08/04 02:05:45;;;;;;;3.23;2.57;;;13.20;83.70;;;;;;5074944;28;20614;-89
2021/08/04 02:08:35;;;;;;;4.37;2.70;;;13.20;83.70;;;;;;5057370;28;20179;-89
2021/08/04 02:11:13;;;;;;;4.23;2.80;;;13.20;83.80;;;;;;5057873;28;20164;-89
2021/08/04 02:13:46;;;;;;;4.57;2.07;;;13.20;83.80;;;;;;5057712;28;20681;-89
2021/08/04 02:16:26;;;;;;;3.67;2.90;;;13.20;84.00;;;;;;5056698;28;20195;-89
2021/08/04 02:19:17;;;;;;;3.83;2.50;;;13.10;84.10;;;;;;5056848;28;20166;-88
2021/08/04 02:21:48;;;;;;;3.47;2.97;;;13.00;84.20;;;;;;5074035;28;20274;-89
2021/08/04 02:24:16;;;;;;;4.03;2.77;;;13.10;84.30;;;;;;5057439;28;20242;-89
2021/08/04 02:26:43;;;;;;;3.67;3.20;;;13.00;84.30;;;;;;5074323;28;20167;-89
2021/08/04 02:29:11;;;;;;;3.90;2.70;;;12.90;84.70;;;;;;5055924;28;20540;-89
2021/08/04 02:31:38;;;;;;;3.37;3.03;;;12.80;84.90;;;;;;5056643;28;20171;-89
2021/08/04 02:34:03;;;;;;;5.80;3.10;;;12.80;85.10;;;;;;5056352;28;20191;-89
2021/08/04 02:36:30;;;;;;;3.87;2.90;;;12.70;85.50;;;;;;5056266;28;20195;-89
2021/08/04 02:39:01;;;;;;;4.70;3.40;;;12.70;85.80;;;;;;5074326;28;20167;-88
2021/08/04 02:41:31;;;;;;;6.80;3.40;;;12.60;86.00;;;;;;5057298;28;20501;-89
2021/08/04 02:43:57;;;;;;;3.57;3.27;;;12.60;86.30;;;;;;5056589;28;20203;-89
2021/08/04 02:46:23;;;;;;;4.17;3.77;;;12.50;86.50;;;;;;5056179;28;20175;-88
2021/08/04 02:48:49;;;;;;;3.90;3.37;;;12.50;86.60;;;;;;5056976;28;20608;-89
2021/08/04 02:51:21;;;;;;;4.27;3.87;;;12.60;86.60;;;;;;5074047;28;20297;-89
2021/08/04 02:53:54;;;;;;;4.23;3.70;;;12.50;86.60;;;;;;5074208;28;20667;-89
2021/08/04 02:56:19;;;;;;;5.67;4.10;;;12.50;86.80;;;;;;5073894;28;20179;-89
2021/08/04 02:58:45;;;;;;;7.00;3.83;;;12.50;86.90;;;;;;5073954;28;20174;-89
2021/08/04 03:01:11;;;;;;;5.70;3.97;;;12.50;87.00;;;;;;5073965;28;20716;-89
2021/08/04 03:03:37;;;;;;;4.30;3.90;;;12.50;87.00;;;;;;5073824;28;20210;-89
2021/08/04 03:06:02;;;;;;;7.33;3.40;;;12.50;87.20;;;;;;5073798;28;20178;-89
2021/08/04 03:08:28;;;;;;;5.30;3.83;;;12.50;87.10;;;;;;5055842;28;20209;-89
2021/08/04 03:10:54;;;;;;;4.30;3.90;;;12.40;87.10;;;;;;5073736;28;20183;-89
2021/08/04 03:13:19;;;;;;;6.30;4.20;;;12.40;87.20;;;;;;5073658;28;20692;-88
2021/08/04 03:15:45;;;;;;;11.47;6.07;;;12.30;87.20;;;;;;5055665;28;20300;-89
2021/08/04 03:18:11;;;;;;;4.20;3.80;;;12.30;87.50;;;;;;5055737;28;20187;-88
2021/08/04 03:20:37;;;;;;;4.97;4.20;;;12.30;87.50;;;;;;5055688;28;20654;-89
2021/08/04 03:23:03;;;;;;;5.13;3.73;;;12.30;87.60;;;;;;5055860;28;20192;-89
2021/08/04 03:25:28;;;;;;;6.27;4.17;;;12.30;87.70;;;;;;5055619;28;20202;-89
2021/08/04 03:27:54;;;;;;;9.27;4.60;;;12.30;87.70;;;;;;5073575;28;20183;-89
2021/08/04 03:30:20;;;;;;;7.80;4.10;;;12.30;87.80;;;;;;5055783;28;20202;-89
2021/08/04 03:32:45;;;;;;;9.47;4.53;;;12.30;87.80;;;;;;5055402;28;20206;-89
2021/08/04 03:35:11;;;;;;;5.40;4.20;;;12.30;87.80;;;;;;5055414;28;20257;-89
2021/08/04 03:37:37;;;;;;;6.03;3.57;;;12.30;87.70;;;;;;5055547;28;20175;-89
2021/08/04 03:40:04;;;;;;;5.43;4.07;;;12.40;87.70;;;;;;5055319;28;20256;-89
2021/08/04 03:42:30;;;;;;;4.23;3.83;;;12.40;87.70;;;;;;5055306;28;20211;-88
2021/08/04 03:44:55;;;;;;;9.00;4.23;;;12.40;87.80;;;;;;5073847;28;20170;-89
2021/08/04 03:47:21;;;;;;;9.80;5.03;;;12.40;87.80;;;;;;5073479;28;20207;-89
2021/08/04 03:49:46;;;;;;;5.80;3.80;;;12.40;87.80;;;;;;5073536;28;20214;-89
2021/08/04 03:52:12;;;;;;;5.03;4.00;;;12.50;87.70;;;;;;5073619;28;20630;-89
2021/08/04 03:54:38;;;;;;;6.83;3.80;;;12.70;87.80;;;;;;5073493;28;20195;-89
2021/08/04 03:57:04;;;;;;;7.23;4.00;;;12.80;87.30;;;;;;5073389;28;20232;-89
2021/08/04 03:59:29;;;;;;;5.93;3.57;;;13.00;86.70;;;;;;5073568;28;20174;-89
2021/08/04 04:01:55;;;;;;;3.63;3.30;;;13.10;86.10;;;;;;5073075;28;20578;-89
2021/08/04 04:04:21;;;;;;;3.47;3.07;;;13.20;85.60;;;;;;5055295;28;20596;-89
2021/08/04 04:06:46;;;;;;;3.63;2.93;;;13.30;85.10;;;;;;5073384;28;20689;-89
2021/08/04 04:09:12;;;;;;;4.03;3.43;;;13.30;84.50;;;;;;5055199;28;20666;-89
2021/08/04 04:11:37;;;;;;;3.60;3.30;;;13.40;84.40;;;;;;5073337;28;20199;-89
2021/08/04 04:14:03;;;;;;;3.73;3.43;;;13.30;84.20;;;;;;5055293;28;20206;-89
2021/08/04 04:16:29;;;;;;;4.40;3.77;;;13.20;84.30;;;;;;5072915;28;20183;-88
2021/08/04 04:18:55;;;;;;;5.17;4.40;;;13.20;84.70;;;;;;5055329;28;20176;-90
2021/08/04 04:21:20;;;;;;;5.60;3.87;;;13.20;84.80;;;;;;5055294;28;20175;-89
2021/08/04 04:23:46;;;;;;;5.47;3.53;;;13.10;85.10;;;;;;5054962;28;20191;-89
2021/08/04 04:26:11;;;;;;;7.07;3.77;;;13.20;85.30;;;;;;5055429;28;20175;-89
2021/08/04 04:28:37;;;;;;;3.97;3.57;;;13.30;85.20;;;;;;5055032;28;20175;-89
2021/08/04 04:31:03;;;;;;;4.77;3.40;;;13.40;84.70;;;;;;5054929;28;20639;-89
2021/08/04 04:33:28;;;;;;;5.47;4.13;;;13.30;84.80;;;;;;5072776;28;20274;-89
2021/08/04 04:35:55;;;;;;;6.30;3.70;;;13.30;84.80;;;;;;5054857;28;20218;-89
2021/08/04 04:38:21;;;;;;;5.73;3.73;;;13.30;84.90;;;;;;5054857;28;20171;-88
2021/08/04 04:40:47;;;;;;;5.67;3.43;;;13.30;84.80;;;;;;5054880;28;20517;-88
2021/08/04 04:43:12;;;;;;;4.20;3.17;;;13.30;84.70;;;;;;5072767;28;20215;-89
2021/08/04 04:45:38;;;;;;;3.70;3.40;;;13.30;84.40;;;;;;5072795;28;20178;-89
2021/08/04 04:48:04;;;;;;;4.50;3.67;;;13.30;84.70;;;;;;5054865;28;20233;-89
2021/08/04 04:50:31;;;;;;;7.13;3.50;;;13.20;84.60;;;;;;5055989;28;20282;-89
2021/08/04 04:52:57;;;;;;;7.10;3.67;;;13.20;84.90;;;;;;5058623;28;20200;-89
2021/08/04 04:55:23;;;;;;;4.23;3.23;;;13.20;84.90;;;;;;5058388;28;20207;-89
2021/08/04 04:57:48;;;;;;;6.43;4.13;;;13.20;84.80;;;;;;5058430;28;20210;-89
2021/08/04 05:00:14;;;;;;;3.80;3.40;;;13.20;85.20;;;;;;5076182;28;20168;-89
2021/08/04 05:02:40;;;;;;;7.07;3.67;;;13.20;85.20;;;;;;5076163;28;20191;-89
2021/08/04 05:05:08;;;;;;;5.00;3.77;;;13.20;85.30;;;;;;5058330;28;20556;-89
2021/08/04 05:07:34;;;;;;;4.97;3.70;;;13.20;85.40;;;;;;5058109;28;20644;-89
2021/08/04 05:09:59;;;;;;;4.67;3.40;;;13.20;85.30;;;;;;5076212;28;20180;-89
2021/08/04 05:12:25;;;;;;;4.97;3.37;;;13.30;85.10;;;;;;5076220;28;20279;-89
2021/08/04 05:14:51;;;;;;;4.10;3.33;;;13.30;85.10;;;;;;5058307;28;20671;-89
2021/08/04 05:17:16;;;;;;;4.93;3.40;;;13.30;85.10;;;;;;5058247;28;20266;-89
2021/08/04 05:19:42;;;;;;;4.63;3.73;;;13.30;85.20;;;;;;5058231;28;20205;-89
2021/08/04 05:22:08;;;;;;;3.73;3.40;;;13.40;85.50;;;;;;5058223;28;20196;-88
2021/08/04 05:24:34;;;;;;;9.50;3.90;;;13.40;85.20;;;;;;5057866;28;20186;-89
2021/08/04 05:27:00;;;;;;;9.40;3.70;;;13.50;85.60;;;;;;5058953;28;20239;-88
2021/08/04 05:29:26;;;;;;;8.53;3.50;;;13.50;85.80;;;;;;5058101;28;20651;-88
2021/08/04 05:31:52;;;;;;;6.43;3.50;;;13.50;85.40;;;;;;5057656;28;20715;-88
2021/08/04 05:34:17;;;;;;;5.27;3.70;;;13.50;85.50;;;;;;5057996;28;20554;-89
2021/08/04 05:36:44;;;;;;;4.80;3.40;;;13.60;85.40;;;;;;5075795;28;20171;-89
2021/08/04 05:39:10;;;;;;;5.10;3.30;;;13.60;85.10;;;;;;5075497;28;20254;-89
2021/08/04 05:41:36;;;;;;;6.63;3.20;;;13.60;85.00;;;;;;5075763;28;20757;-89
2021/08/04 05:44:02;;;;;;;5.23;3.00;;;13.70;85.40;;;;;;5057884;28;20697;-89
2021/08/04 05:46:28;;;;;;;4.27;3.10;;;13.70;85.30;;;;;;5057494;28;20527;-89
2021/08/04 05:48:53;;;;;;;8.37;3.30;;;13.80;85.10;;;;;;5075291;28;20183;-89
2021/08/04 05:51:19;;;;;;;6.13;3.23;;;13.90;85.30;;;;;;5075292;28;20175;-89
2021/08/04 05:53:45;;;;;;;5.20;3.00;;;13.90;85.30;;;;;;5075413;28;20191;-89
2021/08/04 05:56:11;;;;;;;5.03;2.93;;;13.90;85.10;;;;;;5075134;28;20691;-89
2021/08/04 05:58:36;;;;;;;2.93;2.63;;;14.00;85.10;;;;;;5075101;28;20175;-89
2021/08/04 06:01:02;;;;;;;4.33;2.77;;;14.00;85.10;;;;;;5075123;28;20171;-89
2021/08/04 06:03:28;;;;;;;3.50;2.50;;;14.10;85.20;;;;;;5056929;28;20192;-89
2021/08/04 06:05:53;;;;;;;6.37;2.77;;;14.20;84.90;;;;;;5057196;28;20175;-88
2021/08/04 06:08:19;;;;;;;5.00;2.80;;;14.20;84.80;;;;;;5057090;28;20631;-89
2021/08/04 06:10:45;;;;;;;2.60;2.40;;;14.20;85.10;;;;;;5057622;28;20172;-89
2021/08/04 06:13:11;;;;;;;2.50;2.17;;;14.30;85.30;;;;;;5058093;28;20227;-89
2021/08/04 06:15:37;;;;;;;2.60;2.40;;;14.30;85.10;;;;;;5057168;28;20277;-89
2021/08/04 06:18:03;;;;;;;3.80;2.60;;;14.30;84.90;;;;;;5074816;28;20221;-89
2021/08/04 06:20:29;;;;;;;3.80;2.73;;;14.40;84.90;;;;;;5056791;28;20210;-89
2021/08/04 06:22:54;;;;;;;3.13;2.80;;;14.50;84.90;;;;;;5056663;28;20199;-89
2021/08/04 06:25:20;;;;;;;4.10;2.07;;;14.50;84.90;;;;;;5057108;28;20179;-89
2021/08/04 06:27:46;;;;;;;2.60;2.40;;;14.50;84.40;;;;;;5056736;28;20183;-89
2021/08/04 06:30:12;;;;;;;4.73;2.63;;;14.60;84.40;;;;;;5074502;28;20194;-89
2021/08/04 06:32:37;;;;;;;3.50;2.20;;;14.70;84.30;;;;;;5056539;28;20203;-89
2021/08/04 06:35:04;;;;;;;4.43;2.07;;;14.70;83.90;;;;;;5074340;28;20572;-89
2021/08/04 06:37:29;;;;;;;4.50;2.53;;;14.70;83.30;;;;;;5074611;28;20171;-89
2021/08/04 06:39:55;;;;;;;4.03;2.50;;;14.80;83.50;;;;;;5074249;28;20171;-89
2021/08/04 06:42:21;;;;;;;2.50;2.30;;;14.80;83.50;;;;;;5056871;28;20203;-89
2021/08/04 06:44:46;;;;;;;3.73;2.57;;;14.90;83.50;;;;;;5057149;28;20167;-89
2021/08/04 06:47:12;;;;;;;3.00;2.47;;;14.90;83.70;;;;;;5074358;28;20180;-89
2021/08/04 06:49:38;;;;;;;2.40;2.20;;;15.00;83.50;;;;;;5074251;28;20180;-88
2021/08/04 06:52:04;;;;;;;4.63;2.30;;;15.00;83.10;;;;;;5073985;28;20249;-88
2021/08/04 06:54:29;;;;;;;2.50;2.30;;;15.00;82.70;;;;;;5056004;28;20179;-87
2021/08/04 06:56:55;;;;;;;3.87;2.37;;;15.10;82.70;;;;;;5056110;28;20179;-87
2021/08/04 06:59:21;;;;;;;3.00;2.20;;;15.20;82.70;;;;;;5074200;28;20254;-87
2021/08/04 07:01:46;;;;;;;6.03;2.37;;;15.20;83.20;;;;;;5056026;28;20186;-88
2021/08/04 07:04:13;;;;;;;4.50;2.30;;;15.20;82.70;;;;;;5055979;28;20175;-88
2021/08/04 07:06:49;;;;;;;3.03;2.40;;;15.20;83.20;;;;;;5056226;28;20179;-88
2021/08/04 07:09:14;;;;;;;5.67;2.47;;;15.30;83.20;;;;;;5073803;28;20757;-88
2021/08/04 07:11:40;;;;;;;3.60;2.20;;;15.30;82.90;;;;;;5056647;28;20278;-87
2021/08/04 07:14:06;;;;;;;4.43;2.50;;;15.30;82.70;;;;;;5055170;28;20199;-87
2021/08/04 07:16:32;;;;;;;3.80;3.17;;;15.30;82.90;;;;;;5055955;28;20207;-87
2021/08/04 07:18:57;;;;;;;4.67;2.27;;;15.40;83.40;;;;;;5055669;28;20179;-87
2021/08/04 07:21:23;;;;;;;2.80;2.10;;;15.50;83.50;;;;;;5073612;28;20591;-87
2021/08/04 07:23:49;;;;;;;3.30;2.00;;;15.50;83.60;;;;;;5055579;28;20294;-87
2021/08/04 07:26:14;;;;;;;4.53;2.23;;;15.60;83.70;;;;;;5055650;28;20179;-87
2021/08/04 07:28:41;;;;;;;4.80;1.90;;;15.60;83.40;;;;;;5055678;28;20182;-87
2021/08/04 07:31:07;;;;;;;6.10;2.17;;;15.60;83.30;;;;;;5055543;28;20210;-87
2021/08/04 07:33:33;;;;;;;3.13;2.33;;;15.70;83.30;;;;;;5055436;28;20198;-87
2021/08/04 07:35:58;;;;;;;2.90;2.17;;;15.70;83.80;;;;;;5055462;28;20203;-87
2021/08/04 07:38:24;;;;;;;2.63;2.03;;;15.70;83.40;;;;;;5055532;28;20273;-87
2021/08/04 07:40:50;;;;;;;3.17;2.17;;;15.80;83.40;;;;;;5055411;28;20211;-87
2021/08/04 07:43:15;;;;;;;3.63;2.70;;;15.80;84.00;;;;;;5162585;22;20318;-89
2021/08/04 07:45:41;;;;;;;3.43;2.00;;;15.90;83.80;;;;;;5055927;28;20264;-90
2021/08/04 07:48:07;;;;;;;3.38;2.00;;;15.90;83.60;;;;;;5055437;28;20178;-90
2021/08/04 07:50:32;;;;;;;2.20;2.00;;;15.90;83.80;;;;;;5055724;28;20711;-90
2021/08/04 07:52:58;;;;;;;5.68;2.10;;;16.00;83.70;;;;;;5055372;28;20195;-90
2021/08/04 07:55:23;;;;;;;4.43;2.10;;;16.00;83.20;;;;;;5073269;28;20207;-89
2021/08/04 07:57:49;;;;;;;3.47;2.00;;;16.00;83.50;;;;;;5055422;28;20175;-90
2021/08/04 08:00:15;;;;;;;3.05;2.78;;;16.00;83.50;;;;;;5073647;28;20175;-89
2021/08/04 08:02:42;;;;;;;2.47;2.27;;;16.00;83.20;;;;;;5073286;28;20191;-90
2021/08/04 08:05:08;;;;;;;2.67;2.30;;;16.00;83.40;;;;;;5055283;28;20182;-90
2021/08/04 08:07:34;;;;;;;2.85;2.13;;;16.00;83.40;;;;;;5073088;28;20179;-90
2021/08/04 08:09:59;;;;;;;3.28;2.20;;;16.10;83.20;;;;;;5055645;28;20710;-90
2021/08/04 08:12:25;;;;;;;3.10;2.42;;;16.20;83.40;;;;;;5055292;28;20595;-89
2021/08/04 08:14:51;;;;;;;3.13;2.45;;;16.20;83.60;;;;;;5073512;28;20214;-89
2021/08/04 08:17:16;;;;;;;3.90;2.35;;;16.30;83.10;;;;;;5073102;28;20179;-90
2021/08/04 08:19:42;;;;;;;3.20;2.33;;;16.30;83.40;;;;;;5072843;28;20168;-89
2021/08/04 08:22:08;;;;;;;4.35;2.30;;;16.40;83.20;;;;;;5073047;28;20250;-89
2021/08/04 08:24:33;;;;;;;2.22;2.03;;;16.50;83.40;;;;;;5073447;28;20258;-90
2021/08/04 08:26:59;;;;;;;2.72;2.17;;;16.50;83.30;;;;;;5075950;28;20179;-90
2021/08/04 08:29:25;;;;;;;4.50;2.20;;;16.50;83.00;;;;;;5076792;28;20301;-90
2021/08/04 08:31:50;;;;;;;4.78;2.45;;;16.50;83.00;;;;;;5058923;28;20652;-90
2021/08/04 08:34:16;;;;;;;3.65;2.17;;;16.60;83.70;;;;;;5076700;28;20188;-90
2021/08/04 08:36:42;;;;;;;5.53;2.40;;;16.60;83.50;;;;;;5076623;28;20198;-90
2021/08/04 08:39:10;;;;;;;3.97;2.45;;;16.70;83.20;;;;;;5058783;28;20530;-90
2021/08/04 08:41:36;;;;;;;3.55;1.98;;;16.80;83.30;;;;;;5076584;28;20175;-90
2021/08/04 08:44:02;;;;;;;4.88;2.42;;;16.80;83.30;;;;;;5058464;28;20207;-90
2021/08/04 08:46:31;;;;;;;6.05;2.88;;;16.90;82.40;;;;;;5058775;28;20175;-90
2021/08/04 08:48:58;;;;;;;5.05;2.20;;;16.80;82.30;;;;;;5058575;28;20270;-90
2021/08/04 08:51:25;;;;;;;3.53;1.80;;;16.90;82.70;;;;;;5058482;28;20182;-90
2021/08/04 08:53:52;;;;;;;3.28;2.25;;;17.00;83.20;;;;;;5058672;28;20199;-90
2021/08/04 08:56:18;;;;;;;4.95;2.47;;;17.00;82.60;;;;;;5058427;28;20199;-90
2021/08/04 08:58:49;;;;;;;3.38;2.15;;;17.10;82.70;;;;;;5059259;28;20568;-90
2021/08/04 09:01:15;;;;;;;2.53;2.33;;;17.20;82.70;;;;;;5059032;28;20208;-90
2021/08/04 09:03:41;;;;;;;6.88;3.28;;;17.20;81.70;;;;;;5058268;28;20195;-90
2021/08/04 09:06:08;;;;;;;8.27;2.15;;;17.30;81.70;;;;;;5058287;28;20186;-90
2021/08/04 09:08:38;;;;;;;3.42;2.35;;;17.30;82.40;;;;;;5058192;28;20214;-90
2021/08/04 09:11:17;;;;;;;3.13;1.92;;;17.50;81.80;;;;;;5058220;28;20551;-90
2021/08/04 09:13:46;;;;;;;4.15;2.10;;;17.50;80.90;;;;;;5058093;28;20206;-90
2021/08/04 09:16:17;;;;;;;2.92;1.80;;;17.50;81.10;;;;;;5058115;28;20581;-90
2021/08/04 09:18:47;;;;;;;3.63;2.30;;;17.60;80.50;;;;;;5075980;28;20610;-90
2021/08/04 09:21:14;;;;;;;2.53;2.08;;;17.60;80.20;;;;;;5057965;28;20175;-90
2021/08/04 09:23:42;;;;;;;3.47;2.38;;;17.70;79.80;;;;;;5057909;28;20199;-90
2021/08/04 09:26:13;;;;;;;2.85;2.25;;;17.80;81.00;;;;;;5075823;28;20171;-90
2021/08/04 09:28:59;;;;;;;2.22;1.80;;;17.80;78.80;;;;;;5058622;28;20243;-90
2021/08/04 09:31:40;;;;;;;2.50;2.05;;;17.80;79.60;;;;;;5057886;28;20167;-90
2021/08/04 09:34:43;;;;;;;4.00;1.95;;;17.80;78.70;;;;;;5057627;28;20666;-90
2021/08/04 09:37:16;;;;;;;2.60;1.85;;;17.80;78.50;;;;;;5075109;28;20194;-90
2021/08/04 09:39:44;;;;;;;2.40;1.88;;;17.80;78.10;;;;;;5058304;28;20167;-90
2021/08/04 09:42:12;;;;;;;6.45;2.22;;;17.80;78.60;;;;;;5057544;28;20172;-90
2021/08/04 09:44:56;;;;;;;7.60;2.05;;;17.80;78.70;;;;;;5057531;28;20564;-90
2021/08/04 09:47:23;;;;;;;3.13;2.00;;;17.80;78.50;;;;;;5057483;28;20182;-90
2021/08/04 09:49:57;;;;;;;2.83;1.60;;;17.80;79.10;;;;;;5075312;28;20258;-90
2021/08/04 09:52:24;;;;;;;3.65;1.80;;;17.80;78.50;;;;;;5075293;28;20183;-90
2021/08/04 09:54:49;;;;;;;2.83;2.03;;;17.70;78.50;;;;;;5075125;28;20282;-90
2021/08/04 09:57:15;;;;;;;2.55;2.35;;;17.70;79.30;;;;;;5075232;28;20198;-90
2021/08/04 10:00:08;;;;;;;2.20;1.90;;;17.70;78.40;;;;;;5057516;28;20527;-90
2021/08/04 10:02:34;;;;;;;2.08;1.88;;;17.80;79.00;;;;;;5075033;28;20187;-90
2021/08/04 10:05:23;;;;;;;2.65;1.88;;;17.70;79.10;;;;;;5074995;28;20167;-90
2021/08/04 10:08:04;;;;;;;5.35;2.45;;;17.70;79.00;;;;;;5057155;28;20179;-90
2021/08/04 10:10:32;;;;;;;6.32;2.22;;;17.70;79.60;;;;;;5057107;28;20254;-90
2021/08/04 10:13:01;;;;;;;2.15;1.88;;;17.70;79.10;;;;;;5057169;28;20203;-90
2021/08/04 10:15:30;;;;;;;4.55;2.00;;;17.80;79.60;;;;;;5075005;28;20194;-90
2021/08/04 10:17:56;;;;;;;4.78;2.38;;;17.80;79.90;;;;;;5075520;28;20171;-90
2021/08/04 10:20:23;;;;;;;4.03;2.05;;;17.90;79.30;;;;;;5057114;28;20225;-90
2021/08/04 10:22:49;;;;;;;2.28;2.08;;;18.00;79.40;;;;;;5057169;28;20253;-90
2021/08/04 10:25:17;;;;;;;3.47;1.85;;;18.10;78.70;;;;;;5056822;28;20522;-90
2021/08/04 10:27:43;;;;;;;2.92;1.92;;;18.20;78.90;;;;;;5056706;28;20224;-90
2021/08/04 10:30:10;;;;;;;2.53;2.20;;;18.30;78.60;;;;;;5056715;28;20175;-90
2021/08/04 10:32:36;;;;;;;3.97;2.30;;;18.30;78.70;;;;;;5056579;28;20206;-90
2021/08/04 10:35:02;;;;;;;3.00;2.38;;;18.40;77.70;;;;;;5056574;28;20698;-90
2021/08/04 10:37:28;;;;;;;5.93;2.50;;;18.50;77.50;;;;;;5056643;28;20171;-90
2021/08/04 10:39:55;;;;;;;6.22;2.42;;;18.50;77.10;;;;;;5056724;28;20271;-90
2021/08/04 10:42:40;;;;;;;5.10;2.85;;;18.50;76.70;;;;;;5074374;28;20191;-90
2021/08/04 10:45:23;;;;;;;3.65;1.88;;;18.60;77.30;;;;;;5056470;28;20171;-90
2021/08/04 10:47:56;;;;;;;2.53;1.95;;;18.70;76.20;;;;;;5056062;28;20175;-90
2021/08/04 10:50:22;;;;;;;8.05;2.30;;;18.70;76.80;;;;;;5055966;28;20168;-90
2021/08/04 10:53:06;;;;;;;3.83;2.13;;;18.80;76.80;;;;;;5056448;28;20222;-90
2021/08/04 10:55:56;;;;;;;3.30;1.90;;;18.90;75.70;;;;;;5056062;28;20226;-90
2021/08/04 10:58:22;;;;;;;14.15;2.08;;;18.90;75.20;;;;;;5056132;28;20199;-90
2021/08/04 11:00:48;;;;;;;2.72;2.10;;;19.10;73.80;;;;;;5074142;28;20701;-90
2021/08/04 11:03:41;;;;;;;3.28;2.03;;;19.20;73.90;;;;;;5073781;28;20179;-90
2021/08/04 11:06:12;;;;;;;3.28;2.58;;;19.20;73.40;;;;;;5058495;28;20179;-93
2021/08/04 11:08:40;;;;;;;3.10;2.00;;;19.50;72.60;;;;;;5064698;28;20209;-93
2021/08/04 11:11:45;;;;;;;4.93;2.47;;;19.80;71.10;;;;;;5071292;28;20270;-92
2021/08/04 11:14:50;;;;;;;5.57;2.00;;;20.00;71.60;;;;;;5052522;28;20207;-93
2021/08/04 11:17:21;;;;;;;7.03;2.15;;;20.10;71.50;;;;;;5079470;28;20622;-93
2021/08/04 11:20:03;;;;;;;5.03;2.40;;;20.00;71.00;;;;;;5063707;28;20208;-92
2021/08/04 11:22:47;;;;;;;2.20;1.67;;;20.10;69.50;;;;;;5060197;28;20277;-92
2021/08/04 11:25:38;;;;;;;5.38;1.60;;;19.80;68.70;;;;;;5073820;28;20151;-91
2021/08/04 11:28:14;;;;;;;1.92;1.70;;;19.70;67.30;;;;;;5056698;28;20168;-91
2021/08/04 11:30:45;;;;;;;3.08;1.60;;;19.70;69.40;;;;;;5055673;28;20168;-91
2021/08/04 11:33:25;;;;;;;3.72;1.90;;;19.70;69.50;;;;;;5055522;28;20198;-91
2021/08/04 11:36:05;;;;;;;2.95;1.60;;;19.70;65.70;;;;;;5055434;28;20198;-91
2021/08/04 11:38:40;;;;;;;1.70;1.40;;;19.70;66.60;;;;;;5055743;28;20163;-91
2021/08/04 11:41:27;;;;;;;2.78;1.40;;;19.80;69.10;;;;;;5055639;28;20167;-90
2021/08/04 11:43:59;;;;;;;1.92;1.73;;;19.90;69.30;;;;;;5055198;28;20207;-90
2021/08/04 11:46:38;;;;;;;3.78;1.80;;;20.10;68.00;;;;;;5055449;28;20167;-90
2021/08/04 11:49:06;;;;;;;4.68;2.03;;;20.10;66.20;;;;;;5073287;28;20203;-91
2021/08/04 11:51:41;;;;;;;6.90;2.15;;;20.10;68.30;;;;;;5055371;28;20228;-90
2021/08/04 11:54:08;;;;;;;5.68;1.63;;;20.20;67.80;;;;;;5055243;28;20211;-90
2021/08/04 11:56:34;;;;;;;3.45;1.80;;;20.20;68.10;;;;;;5055990;28;20240;-89
2021/08/04 11:59:04;;;;;;;2.42;1.50;;;20.40;66.70;;;;;;5055543;28;20175;-89
2021/08/04 12:01:30;;;;;;;5.95;1.60;;;20.30;66.40;;;;;;5077217;28;20206;-89
2021/08/04 12:04:11;;;;;;;1.60;1.50;;;20.30;67.70;;;;;;5077288;28;20187;-89
2021/08/04 12:06:38;;;;;;;3.28;1.67;;;20.30;65.80;;;;;;5059560;28;20197;-89
2021/08/04 12:09:21;;;;;;;2.75;1.70;;;20.30;65.90;;;;;;5060037;28;20179;-89
2021/08/04 12:11:47;;;;;;;1.85;1.35;;;20.50;64.80;;;;;;5059262;28;20627;-89
2021/08/04 12:14:15;;;;;;;3.90;2.13;;;20.60;65.50;;;;;;5059435;28;20611;-89
2021/08/04 12:16:45;;;;;;;2.63;1.50;;;20.50;64.50;;;;;;5076993;28;20685;-89
2021/08/04 12:19:24;;;;;;;1.92;1.60;;;20.50;64.30;;;;;;5077264;28;20152;-89
2021/08/04 12:21:50;;;;;;;1.95;1.42;;;20.60;64.60;;;;;;5076974;28;20254;-89
2021/08/04 12:24:15;;;;;;;2.72;1.50;;;20.60;65.10;;;;;;5058880;28;20752;-89
2021/08/04 12:26:43;;;;;;;10.40;1.70;;;20.70;65.90;;;;;;5059011;28;20179;-88
2021/08/04 12:29:26;;;;;;;2.35;1.67;;;20.70;64.90;;;;;;5058919;28;20225;-89
2021/08/04 12:32:16;;;;;;;1.73;1.42;;;20.70;64.00;;;;;;5058925;28;20164;-89
2021/08/04 12:34:51;;;;;;;2.90;1.70;;;20.70;65.30;;;;;;5076745;28;20162;-89
2021/08/04 12:37:17;;;;;;;1.38;1.27;;;20.70;63.80;;;;;;5076905;28;20155;-89
2021/08/04 12:39:44;;;;;;;4.53;1.20;;;20.70;64.80;;;;;;5076489;28;20246;-88
2021/08/04 12:42:11;;;;;;;3.30;1.52;;;20.70;65.30;;;;;;5076534;28;20182;-89
2021/08/04 12:44:37;;;;;;;2.25;1.58;;;20.80;64.10;;;;;;5076467;28;20225;-88
2021/08/04 12:47:14;;;;;;;2.38;1.45;;;20.80;64.00;;;;;;5058493;28;20174;-89
2021/08/04 12:49:41;;;;;;;2.53;1.60;;;20.90;64.60;;;;;;5076413;28;20164;-89
2021/08/04 12:52:07;;;;;;;2.25;1.60;;;21.00;62.70;;;;;;5058421;28;20242;-89
2021/08/04 12:54:35;;;;;;;1.40;1.30;;;21.40;64.30;;;;;;5076206;28;20185;-89